EHVK

Volkel Air Base Airport

Uden, The Netherlands
METAR EHVK 211325Z AUTO 25008KT 200V330 9999 NCD 28/13 Q1011 BLU
Observed Flight Rules
Jul-21 @ 13:25 UTC (23 minutes ago) Visual Flight Rules
Wind Visibility Clouds
250° at 8 knots 10,000+ meters
  • Clear skies
Temperatures Readings
Current 28°C / 82°F
Dewpoint 13°C / 55°F
Humidity 40%
Altimeter 29.85" Hg
Pressure 1011 hPa
Elevation 21
METAR EHVK 211325Z AUTO 25008KT 200V330 9999 NCD 28/13 Q1011 BLU
Observed Flight Rules
Jul-21 @ 13:25 UTC
(23 minutes ago)
VFR
Wind Visibility
250° at 8 knots 10,000+ meters
Clouds
  • Clear skies
Temperature Dewpoint
28°C / 82°F 13°C / 55°F
Humidity Altimeter Pressure
40% 29.85" Hg 1011 hPa